North Royalton, Ohio
Current Conditions -  °F | °C
As of 2:51 PM on Thursday 18 Dec 2014 (Local Time) from KCLE Reporting Station
Light Snow Light Snow  
Wind Chill: 22°   Ceiling: 2000
Heat Index: 30°   Visibility: 9mi
Dew Point: 23°   Wind: 9mph
Humidity: 75%   Direction: 260°W
Pressure: 30.18"   Gusts: NA
Location:  41.31°N, 81.73°W
Report Text: KCLE 181951Z 26008KT 9SM -SN OVC020 M01/M05 A3018 RMK AO2 SLP228 P0000 T10111050
Loading
Personal Weather Stations






























Interactive Weather Map New forecast layout! Learn more

10-Day Weather Forecast

Advertisements
Track Severe Weather on mobile